sensor_id;sensor_type;location;lat;lon;timestamp;P1;durP1;ratioP1;P2;durP2;ratioP2
76807;SDS011;65758;45.458;11.062;2024-03-06T00:02:22;1.80;;;1.30;;
76807;SDS011;65758;45.458;11.062;2024-03-06T00:04:49;1.80;;;1.00;;
76807;SDS011;65758;45.458;11.062;2024-03-06T00:07:16;3.90;;;1.30;;
76807;SDS011;65758;45.458;11.062;2024-03-06T00:09:43;3.70;;;1.00;;
76807;SDS011;65758;45.458;11.062;2024-03-06T00:12:11;1.70;;;1.00;;
76807;SDS011;65758;45.458;11.062;2024-03-06T00:14:38;1.50;;;1.20;;
76807;SDS011;65758;45.458;11.062;2024-03-06T00:17:05;2.10;;;0.90;;
76807;SDS011;65758;45.458;11.062;2024-03-06T00:19:34;2.70;;;1.30;;
76807;SDS011;65758;45.458;11.062;2024-03-06T00:22:01;1.80;;;1.30;;
76807;SDS011;65758;45.458;11.062;2024-03-06T00:24:29;2.00;;;1.20;;
76807;SDS011;65758;45.458;11.062;2024-03-06T00:26:56;1.30;;;1.20;;
76807;SDS011;65758;45.458;11.062;2024-03-06T00:29:23;2.40;;;1.10;;
76807;SDS011;65758;45.458;11.062;2024-03-06T00:31:49;2.80;;;1.20;;
76807;SDS011;65758;45.458;11.062;2024-03-06T00:34:17;1.20;;;1.00;;
76807;SDS011;65758;45.458;11.062;2024-03-06T00:36:44;2.70;;;1.30;;
76807;SDS011;65758;45.458;11.062;2024-03-06T00:39:11;2.40;;;1.20;;
76807;SDS011;65758;45.458;11.062;2024-03-06T00:41:40;1.20;;;1.10;;
76807;SDS011;65758;45.458;11.062;2024-03-06T00:44:08;4.10;;;1.90;;
76807;SDS011;65758;45.458;11.062;2024-03-06T00:46:35;1.60;;;1.10;;
76807;SDS011;65758;45.458;11.062;2024-03-06T00:49:02;2.70;;;1.20;;
76807;SDS011;65758;45.458;11.062;2024-03-06T00:51:29;2.70;;;1.50;;
76807;SDS011;65758;45.458;11.062;2024-03-06T00:54:10;3.60;;;1.30;;
76807;SDS011;65758;45.458;11.062;2024-03-06T00:56:37;2.70;;;2.10;;
76807;SDS011;65758;45.458;11.062;2024-03-06T00:59:05;2.90;;;2.30;;
76807;SDS011;65758;45.458;11.062;2024-03-06T01:01:33;5.10;;;2.30;;
76807;SDS011;65758;45.458;11.062;2024-03-06T01:04:00;5.00;;;2.40;;
76807;SDS011;65758;45.458;11.062;2024-03-06T01:06:27;4.80;;;2.70;;
76807;SDS011;65758;45.458;11.062;2024-03-06T01:08:55;4.70;;;2.40;;
76807;SDS011;65758;45.458;11.062;2024-03-06T01:11:24;5.80;;;2.40;;
76807;SDS011;65758;45.458;11.062;2024-03-06T01:13:52;3.60;;;2.70;;
76807;SDS011;65758;45.458;11.062;2024-03-06T01:16:19;5.80;;;3.30;;
76807;SDS011;65758;45.458;11.062;2024-03-06T01:18:46;4.20;;;2.20;;
76807;SDS011;65758;45.458;11.062;2024-03-06T01:21:13;5.30;;;3.20;;
76807;SDS011;65758;45.458;11.062;2024-03-06T01:23:40;5.40;;;4.10;;
76807;SDS011;65758;45.458;11.062;2024-03-06T01:26:07;6.40;;;4.00;;
76807;SDS011;65758;45.458;11.062;2024-03-06T01:28:34;8.40;;;4.10;;
76807;SDS011;65758;45.458;11.062;2024-03-06T01:31:01;5.50;;;4.50;;
76807;SDS011;65758;45.458;11.062;2024-03-06T01:33:27;8.10;;;5.10;;
76807;SDS011;65758;45.458;11.062;2024-03-06T01:35:54;6.00;;;4.30;;
76807;SDS011;65758;45.458;11.062;2024-03-06T01:38:21;7.00;;;5.40;;
76807;SDS011;65758;45.458;11.062;2024-03-06T01:40:48;6.60;;;4.70;;
76807;SDS011;65758;45.458;11.062;2024-03-06T01:43:22;8.80;;;6.30;;
76807;SDS011;65758;45.458;11.062;2024-03-06T01:45:51;7.20;;;6.00;;
76807;SDS011;65758;45.458;11.062;2024-03-06T01:48:21;12.10;;;6.80;;
76807;SDS011;65758;45.458;11.062;2024-03-06T01:50:53;6.80;;;5.70;;
76807;SDS011;65758;45.458;11.062;2024-03-06T01:53:22;9.70;;;6.90;;
76807;SDS011;65758;45.458;11.062;2024-03-06T01:55:53;10.40;;;6.90;;
76807;SDS011;65758;45.458;11.062;2024-03-06T01:58:20;8.70;;;6.80;;
76807;SDS011;65758;45.458;11.062;2024-03-06T02:00:49;11.30;;;7.20;;
76807;SDS011;65758;45.458;11.062;2024-03-06T02:03:17;8.40;;;5.90;;
76807;SDS011;65758;45.458;11.062;2024-03-06T02:05:48;9.50;;;5.90;;
76807;SDS011;65758;45.458;11.062;2024-03-06T02:08:15;7.30;;;5.70;;
76807;SDS011;65758;45.458;11.062;2024-03-06T02:10:44;9.20;;;5.30;;
76807;SDS011;65758;45.458;11.062;2024-03-06T02:13:12;7.80;;;6.20;;
76807;SDS011;65758;45.458;11.062;2024-03-06T02:15:40;6.00;;;5.10;;
76807;SDS011;65758;45.458;11.062;2024-03-06T02:18:07;12.00;;;5.40;;
76807;SDS011;65758;45.458;11.062;2024-03-06T02:20:39;6.10;;;4.80;;
76807;SDS011;65758;45.458;11.062;2024-03-06T02:23:07;8.40;;;4.90;;
76807;SDS011;65758;45.458;11.062;2024-03-06T02:25:34;5.80;;;4.10;;
76807;SDS011;65758;45.458;11.062;2024-03-06T02:28:02;10.20;;;4.80;;
76807;SDS011;65758;45.458;11.062;2024-03-06T02:30:29;10.20;;;5.00;;
76807;SDS011;65758;45.458;11.062;2024-03-06T02:33:02;8.50;;;4.30;;
76807;SDS011;65758;45.458;11.062;2024-03-06T02:35:33;6.80;;;5.10;;
76807;SDS011;65758;45.458;11.062;2024-03-06T02:38:02;6.00;;;5.10;;
76807;SDS011;65758;45.458;11.062;2024-03-06T02:40:33;8.30;;;4.90;;
76807;SDS011;65758;45.458;11.062;2024-03-06T02:43:01;7.00;;;5.20;;
76807;SDS011;65758;45.458;11.062;2024-03-06T02:45:28;9.50;;;5.30;;
76807;SDS011;65758;45.458;11.062;2024-03-06T02:47:55;5.40;;;3.90;;
76807;SDS011;65758;45.458;11.062;2024-03-06T02:50:22;6.60;;;4.70;;
76807;SDS011;65758;45.458;11.062;2024-03-06T02:52:50;7.00;;;4.10;;
76807;SDS011;65758;45.458;11.062;2024-03-06T02:55:18;5.30;;;4.30;;
76807;SDS011;65758;45.458;11.062;2024-03-06T02:57:46;6.40;;;4.00;;
76807;SDS011;65758;45.458;11.062;2024-03-06T03:00:13;7.30;;;4.40;;
76807;SDS011;65758;45.458;11.062;2024-03-06T03:02:40;5.60;;;4.20;;
76807;SDS011;65758;45.458;11.062;2024-03-06T03:05:07;10.20;;;5.10;;
76807;SDS011;65758;45.458;11.062;2024-03-06T03:07:35;5.50;;;4.60;;
76807;SDS011;65758;45.458;11.062;2024-03-06T03:10:02;9.90;;;4.40;;
76807;SDS011;65758;45.458;11.062;2024-03-06T03:12:30;6.70;;;4.50;;
76807;SDS011;65758;45.458;11.062;2024-03-06T03:14:57;6.80;;;4.30;;
76807;SDS011;65758;45.458;11.062;2024-03-06T03:17:24;6.50;;;4.00;;
76807;SDS011;65758;45.458;11.062;2024-03-06T03:19:51;7.90;;;4.30;;
76807;SDS011;65758;45.458;11.062;2024-03-06T03:22:17;5.40;;;3.30;;
76807;SDS011;65758;45.458;11.062;2024-03-06T03:24:44;5.00;;;3.60;;
76807;SDS011;65758;45.458;11.062;2024-03-06T03:27:11;5.80;;;3.50;;
76807;SDS011;65758;45.458;11.062;2024-03-06T03:29:38;4.20;;;3.40;;
76807;SDS011;65758;45.458;11.062;2024-03-06T03:32:06;3.60;;;2.70;;
76807;SDS011;65758;45.458;11.062;2024-03-06T03:34:36;6.60;;;3.70;;
76807;SDS011;65758;45.458;11.062;2024-03-06T03:37:03;4.70;;;3.30;;
76807;SDS011;65758;45.458;11.062;2024-03-06T03:39:29;5.80;;;3.90;;
76807;SDS011;65758;45.458;11.062;2024-03-06T03:41:56;6.40;;;3.90;;
76807;SDS011;65758;45.458;11.062;2024-03-06T03:44:23;6.70;;;4.20;;
76807;SDS011;65758;45.458;11.062;2024-03-06T03:46:50;7.50;;;3.80;;
76807;SDS011;65758;45.458;11.062;2024-03-06T03:49:17;8.20;;;4.20;;
76807;SDS011;65758;45.458;11.062;2024-03-06T03:51:45;8.40;;;4.20;;
76807;SDS011;65758;45.458;11.062;2024-03-06T03:54:12;6.50;;;4.20;;
76807;SDS011;65758;45.458;11.062;2024-03-06T03:56:39;7.30;;;4.50;;
76807;SDS011;65758;45.458;11.062;2024-03-06T03:59:06;7.00;;;4.40;;
76807;SDS011;65758;45.458;11.062;2024-03-06T04:01:34;6.60;;;3.50;;
76807;SDS011;65758;45.458;11.062;2024-03-06T04:04:01;6.00;;;3.30;;
76807;SDS011;65758;45.458;11.062;2024-03-06T04:06:28;9.80;;;5.20;;
76807;SDS011;65758;45.458;11.062;2024-03-06T04:08:55;7.30;;;4.70;;
76807;SDS011;65758;45.458;11.062;2024-03-06T04:11:22;8.30;;;4.80;;
76807;SDS011;65758;45.458;11.062;2024-03-06T04:13:49;4.50;;;3.60;;
76807;SDS011;65758;45.458;11.062;2024-03-06T04:16:19;6.60;;;5.30;;
76807;SDS011;65758;45.458;11.062;2024-03-06T04:18:46;6.10;;;4.40;;
76807;SDS011;65758;45.458;11.062;2024-03-06T04:21:13;9.30;;;4.80;;
76807;SDS011;65758;45.458;11.062;2024-03-06T04:23:42;9.20;;;4.90;;
76807;SDS011;65758;45.458;11.062;2024-03-06T04:26:09;9.30;;;4.90;;
76807;SDS011;65758;45.458;11.062;2024-03-06T04:28:37;5.10;;;4.40;;
76807;SDS011;65758;45.458;11.062;2024-03-06T04:31:04;8.50;;;5.10;;
76807;SDS011;65758;45.458;11.062;2024-03-06T04:33:31;6.90;;;4.90;;
76807;SDS011;65758;45.458;11.062;2024-03-06T04:36:00;9.00;;;5.10;;
76807;SDS011;65758;45.458;11.062;2024-03-06T04:38:29;8.20;;;4.40;;
76807;SDS011;65758;45.458;11.062;2024-03-06T04:40:56;8.00;;;4.50;;
76807;SDS011;65758;45.458;11.062;2024-03-06T04:43:23;8.10;;;5.10;;
76807;SDS011;65758;45.458;11.062;2024-03-06T04:45:50;9.50;;;5.40;;
76807;SDS011;65758;45.458;11.062;2024-03-06T04:48:18;10.20;;;4.40;;
76807;SDS011;65758;45.458;11.062;2024-03-06T04:50:44;9.00;;;4.60;;
76807;SDS011;65758;45.458;11.062;2024-03-06T04:53:11;6.60;;;4.40;;
76807;SDS011;65758;45.458;11.062;2024-03-06T04:55:38;8.80;;;5.10;;
76807;SDS011;65758;45.458;11.062;2024-03-06T04:58:05;9.10;;;5.00;;
76807;SDS011;65758;45.458;11.062;2024-03-06T05:00:32;8.90;;;5.20;;
76807;SDS011;65758;45.458;11.062;2024-03-06T05:02:59;9.40;;;5.30;;
76807;SDS011;65758;45.458;11.062;2024-03-06T05:05:44;9.70;;;5.10;;
76807;SDS011;65758;45.458;11.062;2024-03-06T05:08:28;9.90;;;5.20;;
76807;SDS011;65758;45.458;11.062;2024-03-06T05:11:14;8.80;;;4.40;;
76807;SDS011;65758;45.458;11.062;2024-03-06T05:16:43;5.80;;;4.30;;
76807;SDS011;65758;45.458;11.062;2024-03-06T05:19:27;8.40;;;4.80;;
76807;SDS011;65758;45.458;11.062;2024-03-06T05:22:16;6.80;;;3.90;;
76807;SDS011;65758;45.458;11.062;2024-03-06T05:25:01;6.60;;;4.90;;
76807;SDS011;65758;45.458;11.062;2024-03-06T05:27:45;8.70;;;4.80;;
76807;SDS011;65758;45.458;11.062;2024-03-06T05:30:30;8.20;;;5.10;;
76807;SDS011;65758;45.458;11.062;2024-03-06T05:33:14;9.80;;;5.90;;
76807;SDS011;65758;45.458;11.062;2024-03-06T05:35:59;9.90;;;5.10;;
76807;SDS011;65758;45.458;11.062;2024-03-06T05:38:44;7.20;;;5.80;;
76807;SDS011;65758;45.458;11.062;2024-03-06T05:41:29;9.80;;;5.30;;
76807;SDS011;65758;45.458;11.062;2024-03-06T05:44:14;9.80;;;5.20;;
76807;SDS011;65758;45.458;11.062;2024-03-06T05:49:44;9.20;;;5.60;;
76807;SDS011;65758;45.458;11.062;2024-03-06T05:55:13;8.60;;;5.30;;
76807;SDS011;65758;45.458;11.062;2024-03-06T06:00:38;9.50;;;5.10;;
76807;SDS011;65758;45.458;11.062;2024-03-06T06:03:07;7.00;;;5.20;;
76807;SDS011;65758;45.458;11.062;2024-03-06T06:05:35;7.60;;;4.40;;
76807;SDS011;65758;45.458;11.062;2024-03-06T06:08:04;10.20;;;5.80;;
76807;SDS011;65758;45.458;11.062;2024-03-06T06:10:32;9.00;;;5.60;;
76807;SDS011;65758;45.458;11.062;2024-03-06T06:12:59;8.50;;;4.30;;
76807;SDS011;65758;45.458;11.062;2024-03-06T06:15:26;9.70;;;5.40;;
76807;SDS011;65758;45.458;11.062;2024-03-06T06:17:53;9.10;;;5.00;;
76807;SDS011;65758;45.458;11.062;2024-03-06T06:20:21;9.20;;;5.30;;
76807;SDS011;65758;45.458;11.062;2024-03-06T06:22:48;10.40;;;5.10;;
76807;SDS011;65758;45.458;11.062;2024-03-06T06:25:14;10.40;;;5.30;;
76807;SDS011;65758;45.458;11.062;2024-03-06T06:27:42;8.00;;;4.10;;
76807;SDS011;65758;45.458;11.062;2024-03-06T06:30:10;9.70;;;4.90;;
76807;SDS011;65758;45.458;11.062;2024-03-06T06:32:40;11.60;;;6.10;;
76807;SDS011;65758;45.458;11.062;2024-03-06T06:35:09;9.60;;;5.20;;
76807;SDS011;65758;45.458;11.062;2024-03-06T06:37:38;10.40;;;5.40;;
76807;SDS011;65758;45.458;11.062;2024-03-06T06:40:06;6.80;;;4.90;;
76807;SDS011;65758;45.458;11.062;2024-03-06T06:42:35;9.00;;;5.60;;
76807;SDS011;65758;45.458;11.062;2024-03-06T06:45:03;9.40;;;4.10;;
76807;SDS011;65758;45.458;11.062;2024-03-06T06:47:33;10.70;;;5.10;;
76807;SDS011;65758;45.458;11.062;2024-03-06T06:50:01;11.20;;;6.00;;
76807;SDS011;65758;45.458;11.062;2024-03-06T06:52:32;9.30;;;4.90;;
76807;SDS011;65758;45.458;11.062;2024-03-06T06:55:01;9.10;;;5.60;;
76807;SDS011;65758;45.458;11.062;2024-03-06T06:57:29;9.30;;;5.40;;
76807;SDS011;65758;45.458;11.062;2024-03-06T06:59:56;8.90;;;6.00;;
76807;SDS011;65758;45.458;11.062;2024-03-06T07:02:23;13.90;;;5.50;;
76807;SDS011;65758;45.458;11.062;2024-03-06T07:04:50;8.00;;;5.40;;
76807;SDS011;65758;45.458;11.062;2024-03-06T07:07:17;7.10;;;4.70;;
76807;SDS011;65758;45.458;11.062;2024-03-06T07:09:44;9.20;;;4.90;;
76807;SDS011;65758;45.458;11.062;2024-03-06T07:12:11;9.50;;;4.70;;
76807;SDS011;65758;45.458;11.062;2024-03-06T07:14:37;7.80;;;4.20;;
76807;SDS011;65758;45.458;11.062;2024-03-06T07:17:04;9.70;;;4.40;;
76807;SDS011;65758;45.458;11.062;2024-03-06T07:19:31;9.20;;;4.50;;
76807;SDS011;65758;45.458;11.062;2024-03-06T07:21:58;7.60;;;4.50;;
76807;SDS011;65758;45.458;11.062;2024-03-06T07:24:25;9.60;;;4.60;;
76807;SDS011;65758;45.458;11.062;2024-03-06T07:26:52;7.40;;;4.80;;
76807;SDS011;65758;45.458;11.062;2024-03-06T07:29:19;6.50;;;3.80;;
76807;SDS011;65758;45.458;11.062;2024-03-06T07:31:46;8.50;;;4.40;;
76807;SDS011;65758;45.458;11.062;2024-03-06T07:34:14;8.60;;;3.50;;
76807;SDS011;65758;45.458;11.062;2024-03-06T07:36:41;9.40;;;4.90;;
76807;SDS011;65758;45.458;11.062;2024-03-06T07:39:08;10.20;;;3.90;;
76807;SDS011;65758;45.458;11.062;2024-03-06T07:41:35;5.70;;;3.90;;
76807;SDS011;65758;45.458;11.062;2024-03-06T07:44:02;7.40;;;4.10;;
76807;SDS011;65758;45.458;11.062;2024-03-06T07:46:29;7.50;;;3.30;;
76807;SDS011;65758;45.458;11.062;2024-03-06T07:48:56;7.60;;;3.80;;
76807;SDS011;65758;45.458;11.062;2024-03-06T07:51:23;8.90;;;3.90;;
76807;SDS011;65758;45.458;11.062;2024-03-06T07:53:50;9.30;;;3.50;;
76807;SDS011;65758;45.458;11.062;2024-03-06T07:56:17;11.60;;;3.50;;
76807;SDS011;65758;45.458;11.062;2024-03-06T07:58:45;7.40;;;4.10;;
76807;SDS011;65758;45.458;11.062;2024-03-06T08:01:11;7.60;;;4.10;;
76807;SDS011;65758;45.458;11.062;2024-03-06T08:03:39;8.10;;;3.10;;
76807;SDS011;65758;45.458;11.062;2024-03-06T08:06:07;6.60;;;3.30;;
76807;SDS011;65758;45.458;11.062;2024-03-06T08:08:39;8.80;;;2.90;;
76807;SDS011;65758;45.458;11.062;2024-03-06T08:11:07;5.70;;;3.10;;
76807;SDS011;65758;45.458;11.062;2024-03-06T08:13:38;7.70;;;2.90;;
76807;SDS011;65758;45.458;11.062;2024-03-06T08:16:05;6.90;;;3.30;;
76807;SDS011;65758;45.458;11.062;2024-03-06T08:18:33;3.50;;;1.80;;
76807;SDS011;65758;45.458;11.062;2024-03-06T08:21:01;7.20;;;3.30;;
76807;SDS011;65758;45.458;11.062;2024-03-06T08:23:30;4.00;;;2.40;;
76807;SDS011;65758;45.458;11.062;2024-03-06T08:25:58;5.70;;;2.70;;
76807;SDS011;65758;45.458;11.062;2024-03-06T08:28:26;9.20;;;3.10;;
76807;SDS011;65758;45.458;11.062;2024-03-06T08:30:52;11.20;;;3.40;;
76807;SDS011;65758;45.458;11.062;2024-03-06T08:33:19;9.30;;;3.60;;
76807;SDS011;65758;45.458;11.062;2024-03-06T08:35:48;7.70;;;3.30;;
76807;SDS011;65758;45.458;11.062;2024-03-06T08:38:15;5.90;;;2.90;;
76807;SDS011;65758;45.458;11.062;2024-03-06T08:40:44;6.30;;;2.90;;
76807;SDS011;65758;45.458;11.062;2024-03-06T08:43:12;6.40;;;2.80;;
76807;SDS011;65758;45.458;11.062;2024-03-06T08:45:39;8.10;;;3.20;;
76807;SDS011;65758;45.458;11.062;2024-03-06T08:48:06;6.50;;;2.70;;
76807;SDS011;65758;45.458;11.062;2024-03-06T08:50:33;6.70;;;3.00;;
76807;SDS011;65758;45.458;11.062;2024-03-06T08:53:00;6.30;;;3.10;;
76807;SDS011;65758;45.458;11.062;2024-03-06T08:55:28;4.40;;;2.60;;
76807;SDS011;65758;45.458;11.062;2024-03-06T08:57:55;10.00;;;3.10;;
76807;SDS011;65758;45.458;11.062;2024-03-06T09:00:22;6.60;;;2.80;;
76807;SDS011;65758;45.458;11.062;2024-03-06T09:02:49;6.60;;;3.10;;
76807;SDS011;65758;45.458;11.062;2024-03-06T09:05:16;7.10;;;3.20;;
76807;SDS011;65758;45.458;11.062;2024-03-06T09:07:43;8.30;;;3.40;;
76807;SDS011;65758;45.458;11.062;2024-03-06T09:10:10;4.00;;;2.40;;
76807;SDS011;65758;45.458;11.062;2024-03-06T09:12:37;5.00;;;2.60;;
76807;SDS011;65758;45.458;11.062;2024-03-06T09:15:04;5.90;;;3.10;;
76807;SDS011;65758;45.458;11.062;2024-03-06T09:17:35;3.00;;;1.70;;
76807;SDS011;65758;45.458;11.062;2024-03-06T09:20:02;6.20;;;2.40;;
76807;SDS011;65758;45.458;11.062;2024-03-06T09:22:41;4.50;;;2.70;;
76807;SDS011;65758;45.458;11.062;2024-03-06T09:25:09;6.10;;;2.70;;
76807;SDS011;65758;45.458;11.062;2024-03-06T09:27:37;8.00;;;2.70;;
76807;SDS011;65758;45.458;11.062;2024-03-06T09:30:04;5.90;;;2.90;;
76807;SDS011;65758;45.458;11.062;2024-03-06T09:32:32;6.40;;;3.20;;
76807;SDS011;65758;45.458;11.062;2024-03-06T09:34:59;6.40;;;2.70;;
76807;SDS011;65758;45.458;11.062;2024-03-06T09:37:28;6.80;;;3.00;;
76807;SDS011;65758;45.458;11.062;2024-03-06T09:39:55;5.10;;;2.50;;
76807;SDS011;65758;45.458;11.062;2024-03-06T09:42:23;5.70;;;2.70;;
76807;SDS011;65758;45.458;11.062;2024-03-06T09:44:51;5.20;;;2.90;;
76807;SDS011;65758;45.458;11.062;2024-03-06T09:47:19;6.50;;;2.70;;
76807;SDS011;65758;45.458;11.062;2024-03-06T09:49:54;6.30;;;2.70;;
76807;SDS011;65758;45.458;11.062;2024-03-06T09:52:21;5.90;;;2.90;;
76807;SDS011;65758;45.458;11.062;2024-03-06T09:54:53;5.30;;;2.70;;
76807;SDS011;65758;45.458;11.062;2024-03-06T09:57:21;7.00;;;2.40;;
76807;SDS011;65758;45.458;11.062;2024-03-06T09:59:48;9.60;;;2.60;;
76807;SDS011;65758;45.458;11.062;2024-03-06T10:02:31;6.20;;;2.80;;
76807;SDS011;65758;45.458;11.062;2024-03-06T10:05:05;5.40;;;2.60;;
76807;SDS011;65758;45.458;11.062;2024-03-06T10:07:32;4.80;;;2.40;;
76807;SDS011;65758;45.458;11.062;2024-03-06T10:09:59;6.60;;;2.40;;
76807;SDS011;65758;45.458;11.062;2024-03-06T10:12:27;4.30;;;2.30;;
76807;SDS011;65758;45.458;11.062;2024-03-06T10:14:56;6.30;;;2.40;;
76807;SDS011;65758;45.458;11.062;2024-03-06T10:17:24;4.90;;;2.40;;
76807;SDS011;65758;45.458;11.062;2024-03-06T10:19:54;7.40;;;2.70;;
76807;SDS011;65758;45.458;11.062;2024-03-06T10:22:22;5.10;;;2.40;;
76807;SDS011;65758;45.458;11.062;2024-03-06T10:24:54;6.30;;;2.60;;
76807;SDS011;65758;45.458;11.062;2024-03-06T10:27:23;5.50;;;2.70;;
76807;SDS011;65758;45.458;11.062;2024-03-06T10:30:03;8.90;;;3.30;;
76807;SDS011;65758;45.458;11.062;2024-03-06T10:32:32;5.00;;;2.30;;
76807;SDS011;65758;45.458;11.062;2024-03-06T10:34:59;5.80;;;2.20;;
76807;SDS011;65758;45.458;11.062;2024-03-06T10:37:26;7.30;;;2.60;;
76807;SDS011;65758;45.458;11.062;2024-03-06T10:39:55;6.30;;;2.50;;
76807;SDS011;65758;45.458;11.062;2024-03-06T10:42:25;4.20;;;2.30;;
76807;SDS011;65758;45.458;11.062;2024-03-06T10:44:55;4.30;;;2.00;;
76807;SDS011;65758;45.458;11.062;2024-03-06T10:47:26;5.10;;;2.00;;
76807;SDS011;65758;45.458;11.062;2024-03-06T10:49:54;7.90;;;2.20;;
76807;SDS011;65758;45.458;11.062;2024-03-06T10:52:26;7.20;;;2.30;;
76807;SDS011;65758;45.458;11.062;2024-03-06T10:54:54;3.80;;;1.90;;
76807;SDS011;65758;45.458;11.062;2024-03-06T10:57:24;4.70;;;1.80;;
76807;SDS011;65758;45.458;11.062;2024-03-06T10:59:52;3.60;;;2.10;;
76807;SDS011;65758;45.458;11.062;2024-03-06T11:02:19;6.90;;;2.70;;
76807;SDS011;65758;45.458;11.062;2024-03-06T11:04:50;5.80;;;2.40;;
76807;SDS011;65758;45.458;11.062;2024-03-06T11:07:18;7.00;;;2.50;;
76807;SDS011;65758;45.458;11.062;2024-03-06T11:09:46;5.50;;;2.20;;
76807;SDS011;65758;45.458;11.062;2024-03-06T11:15:15;7.40;;;2.20;;
76807;SDS011;65758;45.458;11.062;2024-03-06T11:17:43;4.30;;;1.90;;
76807;SDS011;65758;45.458;11.062;2024-03-06T11:20:16;4.60;;;1.90;;
76807;SDS011;65758;45.458;11.062;2024-03-06T11:28:34;4.50;;;1.60;;
76807;SDS011;65758;45.458;11.062;2024-03-06T11:38:58;3.40;;;1.60;;
76807;SDS011;65758;45.458;11.062;2024-03-06T11:41:30;3.30;;;1.60;;
76807;SDS011;65758;45.458;11.062;2024-03-06T11:44:14;4.90;;;1.90;;
76807;SDS011;65758;45.458;11.062;2024-03-06T11:46:48;6.10;;;1.90;;
76807;SDS011;65758;45.458;11.062;2024-03-06T11:49:16;4.90;;;2.00;;
76807;SDS011;65758;45.458;11.062;2024-03-06T11:51:48;4.90;;;1.90;;
76807;SDS011;65758;45.458;11.062;2024-03-06T11:54:16;3.10;;;2.00;;
76807;SDS011;65758;45.458;11.062;2024-03-06T11:56:50;6.00;;;1.70;;
76807;SDS011;65758;45.458;11.062;2024-03-06T11:59:23;7.60;;;1.80;;
76807;SDS011;65758;45.458;11.062;2024-03-06T12:01:55;4.70;;;2.20;;
76807;SDS011;65758;45.458;11.062;2024-03-06T12:04:23;2.90;;;1.30;;
76807;SDS011;65758;45.458;11.062;2024-03-06T12:06:51;2.90;;;1.60;;
76807;SDS011;65758;45.458;11.062;2024-03-06T12:09:18;4.60;;;1.60;;
76807;SDS011;65758;45.458;11.062;2024-03-06T12:11:45;3.80;;;2.30;;
76807;SDS011;65758;45.458;11.062;2024-03-06T12:14:21;2.90;;;1.70;;
76807;SDS011;65758;45.458;11.062;2024-03-06T12:17:01;6.00;;;2.20;;
76807;SDS011;65758;45.458;11.062;2024-03-06T12:19:31;3.50;;;1.80;;
76807;SDS011;65758;45.458;11.062;2024-03-06T12:21:59;4.80;;;1.80;;
76807;SDS011;65758;45.458;11.062;2024-03-06T12:24:30;4.70;;;1.80;;
76807;SDS011;65758;45.458;11.062;2024-03-06T12:27:01;5.10;;;2.00;;
76807;SDS011;65758;45.458;11.062;2024-03-06T12:29:30;5.30;;;1.70;;
76807;SDS011;65758;45.458;11.062;2024-03-06T12:32:01;4.80;;;1.60;;
76807;SDS011;65758;45.458;11.062;2024-03-06T12:34:29;4.00;;;1.70;;
76807;SDS011;65758;45.458;11.062;2024-03-06T12:37:07;6.40;;;2.20;;
76807;SDS011;65758;45.458;11.062;2024-03-06T12:39:35;5.20;;;2.10;;
76807;SDS011;65758;45.458;11.062;2024-03-06T12:42:07;6.20;;;2.30;;
76807;SDS011;65758;45.458;11.062;2024-03-06T12:44:34;9.10;;;2.20;;
76807;SDS011;65758;45.458;11.062;2024-03-06T12:47:00;3.60;;;2.00;;
76807;SDS011;65758;45.458;11.062;2024-03-06T12:49:27;7.30;;;2.00;;
76807;SDS011;65758;45.458;11.062;2024-03-06T12:51:55;5.10;;;2.50;;
76807;SDS011;65758;45.458;11.062;2024-03-06T12:54:22;3.60;;;1.60;;
76807;SDS011;65758;45.458;11.062;2024-03-06T12:56:49;2.50;;;1.60;;
76807;SDS011;65758;45.458;11.062;2024-03-06T12:59:16;4.90;;;1.90;;
76807;SDS011;65758;45.458;11.062;2024-03-06T13:01:43;3.80;;;1.70;;
76807;SDS011;65758;45.458;11.062;2024-03-06T13:04:11;3.10;;;2.00;;
76807;SDS011;65758;45.458;11.062;2024-03-06T13:06:39;4.60;;;1.90;;
76807;SDS011;65758;45.458;11.062;2024-03-06T13:09:08;4.20;;;1.90;;
76807;SDS011;65758;45.458;11.062;2024-03-06T13:11:36;5.90;;;1.90;;
76807;SDS011;65758;45.458;11.062;2024-03-06T13:14:03;3.80;;;2.20;;
76807;SDS011;65758;45.458;11.062;2024-03-06T13:16:30;4.10;;;2.20;;
76807;SDS011;65758;45.458;11.062;2024-03-06T13:18:57;4.50;;;2.40;;
76807;SDS011;65758;45.458;11.062;2024-03-06T13:21:26;2.60;;;2.10;;
76807;SDS011;65758;45.458;11.062;2024-03-06T13:23:53;5.50;;;1.90;;
76807;SDS011;65758;45.458;11.062;2024-03-06T13:26:20;4.70;;;2.20;;
76807;SDS011;65758;45.458;11.062;2024-03-06T13:28:47;3.20;;;1.70;;
76807;SDS011;65758;45.458;11.062;2024-03-06T13:31:14;5.40;;;2.40;;
76807;SDS011;65758;45.458;11.062;2024-03-06T13:33:41;6.60;;;2.60;;
76807;SDS011;65758;45.458;11.062;2024-03-06T13:36:09;5.90;;;2.40;;
76807;SDS011;65758;45.458;11.062;2024-03-06T13:38:36;5.70;;;2.40;;
76807;SDS011;65758;45.458;11.062;2024-03-06T13:41:03;2.50;;;1.80;;
76807;SDS011;65758;45.458;11.062;2024-03-06T13:43:31;4.00;;;2.00;;
76807;SDS011;65758;45.458;11.062;2024-03-06T13:45:59;4.00;;;2.10;;
76807;SDS011;65758;45.458;11.062;2024-03-06T13:48:26;3.80;;;1.90;;
76807;SDS011;65758;45.458;11.062;2024-03-06T13:50:53;4.00;;;2.20;;
76807;SDS011;65758;45.458;11.062;2024-03-06T13:53:20;5.40;;;2.40;;
76807;SDS011;65758;45.458;11.062;2024-03-06T13:55:47;4.80;;;2.10;;
76807;SDS011;65758;45.458;11.062;2024-03-06T13:58:13;4.00;;;1.80;;
76807;SDS011;65758;45.458;11.062;2024-03-06T14:00:41;5.50;;;2.40;;
76807;SDS011;65758;45.458;11.062;2024-03-06T14:03:08;2.60;;;2.30;;
76807;SDS011;65758;45.458;11.062;2024-03-06T14:05:34;3.70;;;2.20;;
76807;SDS011;65758;45.458;11.062;2024-03-06T14:08:01;4.50;;;2.00;;
76807;SDS011;65758;45.458;11.062;2024-03-06T14:10:29;3.70;;;1.80;;
76807;SDS011;65758;45.458;11.062;2024-03-06T14:13:00;4.30;;;2.00;;
76807;SDS011;65758;45.458;11.062;2024-03-06T14:15:27;3.90;;;2.30;;
76807;SDS011;65758;45.458;11.062;2024-03-06T14:17:55;3.10;;;1.60;;
76807;SDS011;65758;45.458;11.062;2024-03-06T14:20:22;4.60;;;1.90;;
76807;SDS011;65758;45.458;11.062;2024-03-06T14:22:50;6.20;;;1.80;;
76807;SDS011;65758;45.458;11.062;2024-03-06T14:25:17;3.90;;;1.80;;
76807;SDS011;65758;45.458;11.062;2024-03-06T14:27:45;4.10;;;1.50;;
76807;SDS011;65758;45.458;11.062;2024-03-06T14:30:12;4.20;;;1.70;;
76807;SDS011;65758;45.458;11.062;2024-03-06T14:32:41;3.80;;;2.20;;
76807;SDS011;65758;45.458;11.062;2024-03-06T14:35:08;5.30;;;2.10;;
76807;SDS011;65758;45.458;11.062;2024-03-06T14:37:35;3.20;;;1.70;;
76807;SDS011;65758;45.458;11.062;2024-03-06T14:40:02;3.90;;;2.10;;
76807;SDS011;65758;45.458;11.062;2024-03-06T14:42:35;4.50;;;2.30;;
76807;SDS011;65758;45.458;11.062;2024-03-06T14:45:02;6.30;;;2.70;;
76807;SDS011;65758;45.458;11.062;2024-03-06T14:47:33;3.00;;;1.70;;
76807;SDS011;65758;45.458;11.062;2024-03-06T14:50:00;5.80;;;2.00;;
76807;SDS011;65758;45.458;11.062;2024-03-06T14:52:27;5.80;;;2.30;;
76807;SDS011;65758;45.458;11.062;2024-03-06T14:54:54;9.00;;;3.20;;
76807;SDS011;65758;45.458;11.062;2024-03-06T14:57:21;6.60;;;2.50;;
76807;SDS011;65758;45.458;11.062;2024-03-06T14:59:50;2.60;;;2.10;;
76807;SDS011;65758;45.458;11.062;2024-03-06T15:02:17;4.70;;;3.10;;
76807;SDS011;65758;45.458;11.062;2024-03-06T15:04:44;3.90;;;2.30;;
76807;SDS011;65758;45.458;11.062;2024-03-06T15:07:12;4.00;;;2.20;;
76807;SDS011;65758;45.458;11.062;2024-03-06T15:09:39;5.30;;;2.70;;
76807;SDS011;65758;45.458;11.062;2024-03-06T15:12:05;3.80;;;2.30;;